Record high temperature 35.2°C Record low temperature -28.5°C Record high gust 73.6 km/h Record high average 52.2 km/h Record daily rain 78.0 mm Record low windchill -39.6°C Record high barometer 1045.2 hPa Record low barometer 973.0 hPa
Daily high pressure 1014 hPa Daily low pressure 1012 hPa Daily low windchill 4.8°C Daily high heat index 11.1°C Daily high gust speed 16.2 kmh NNW Daily high average speed 10.1 kmh NW
Beaconsfield Home Weather Data WMR-968
LAST READING AT TIME: 11:20 DATE: October 24 2014, time of next update: 11:25
Current WeatherCloudy/Dry Current Temperature 10.9°C (51.6°F), Apparent temp 9.9°C, Apparent temp solar 11.6°C
Maximum Temperature (since midnight)11.1°C at: 10:50 Minimum Temperature (since midnight)7.4°C at: 06:23
Average windspeed (ten minute)4.6 kmh (2.5 kts) Wind Direction (ten minute)NNW (335°)
Windchill Temperature 10.8°C Maximum Gust (last hour)12.2 kmh (6.6 kts) at: 11:05
Maximum Gust (since midnight)16.2 kmh (8.7 kts) at: 04:55 Maximum 1 minute average (since midnight)10.1 kmh (5.4 kts) at: 04:43
Rainfall (last hour)0.0 mm Rainfall (since midnight)1.2 mm (0.05 in.) at 07:43
Rainfall This month 72.6 mm (2.86 in.) Rainfall To date this year 694.0 mm (27.32 in.)
Maximum rain per minute (last hour)0.0 mm/min Maximum rain per hour (last 6 hours)0.8 mm/hour
Yesterdays rainfall 5.0 mm DewPoint 0.6°C (Wet Bulb :6.6°C )
Humidity 49 %, Humidex 8.9°C Barometer corrected to msl1012 hPa
Pressure change 0 hPa (last hour) Trend (last hour)STEADY
Pressure change (last 12 hours)-3 hPa Pressure change (last 6 hours)+0 hPa
Current Indoor Temp. 21.9°C
Current Indoor Hum. 38%
Current 00:00 hours of sunshine today, current sky: Cloudy
Sunshine hours for the year: 46:04 hrs Sunshine hours for the month: 00:00 hrs
Current evapotranspiration rate 0.9 mm per day. Yesterday's reading 2.0




Weather report/warning/Metars

Montreal / Pierre Elliot Trudeau International Airport, Que, Canada (CYUL) 45-28N 073-45W 36M
Oct 24, 2014 - 11:00 AM EDT / 2014.10.24 1500 UTC
Wind: from the N (360 degrees) at 8 MPH (7 KT):0
Visibility: 15 mile(s):0
Sky conditions: mostly cloudy
Temperature: 50 F (10 C)
Dew Point: 42 F (6 C)
Relative Humidity: 76%
Pressure (altimeter): 29.89 in. Hg (1012 hPa)
ob: CYUL 241500Z 36007KT 15SM FEW010 BKN038 10/06 A2989 RMK SF1SC7 SF TR SLP123
cycle: 15
Sherbrooke, Que., Canada (CYSC) 45-24N 071-53W
Oct 24, 2014 - 09:00 AM EDT / 2014.10.24 1300 UTC
Wind: from the N (010 degrees) at 5 MPH (4 KT):0
Temperature: 42 F (6 C)
Dew Point: 41 F (5 C)
Relative Humidity: 93%
Pressure (altimeter): 29.81 in. Hg (1009 hPa)
ob: CYSC 241300Z AUTO 01004KT 06/05 A2981 RMK CLD MISG WX MISG VIS MISG PCPN MISG SLP102
cycle: 13
St Jovite Automatic Weather Reporting System , Canada (CWJT) 46-04N 074-32W
Oct 23, 2014 - 04:00 PM EDT / 2014.10.23 2000 UTC
Wind: from the E (080 degrees) at 2 MPH (2 KT):0
Temperature: 56.8 F (13.8 C)
Dew Point: 45.0 F (7.2 C)
Relative Humidity: 64%
Pressure tendency: 0.04 inches (1.5 hPa) lower than three hours ago
ob: CWJT 232000Z AUTO 08002KT 14/07 RMK AO1 SLP169 T01380072 56015
cycle: 20
Ste Anne De Bell 1, Canada (CWVQ) 45-26N 073-56W
Oct 24, 2014 - 11:00 AM EDT / 2014.10.24 1500 UTC
Wind: from the N (360 degrees) at 5 MPH (4 KT):0
Temperature: 52.2 F (11.2 C)
Dew Point: 41.9 F (5.5 C)
Relative Humidity: 67%
Pressure tendency: 0.01 inches (0.2 hPa) higher than three hours ago
ob: CWVQ 241500Z AUTO 36004KT 11/06 RMK AO1 8005 SLP123 T01120055 50002
cycle: 15
Montreal / Mirabel, Canada (CYMX) 45-41N 074-02W
Oct 24, 2014 - 10:00 AM EDT / 2014.10.24 1400 UTC
Wind: from the NW (310 degrees) at 5 MPH (4 KT):0
Visibility: 25 mile(s):0
Sky conditions: mostly cloudy
Temperature: 51 F (11 C)
Dew Point: 42 F (6 C)
Relative Humidity: 71%
Pressure (altimeter): 29.91 in. Hg (1012 hPa)
ob: CYMX 241400Z 31004KT 25SM FEW039 BKN045 BKN070 11/06 A2991 RMK SC1SC6AC1 AC TR SLP130
cycle: 14
L'Acadie, Canada (CWIZ) 45-18N 073-21W
Oct 24, 2014 - 11:00 AM EDT / 2014.10.24 1500 UTC
Wind: from the N (010 degrees) at 5 MPH (4 KT):0
Temperature: 48.0 F (8.9 C)
Dew Point: 43.2 F (6.2 C)
Relative Humidity: 83%
ob: CWIZ 241500Z AUTO 01004KT 09/06 RMK AO1 T00890062
cycle: 15
St Anicet, Canada (CWBZ) 45-07N 074-17W 49M
Oct 24, 2014 - 11:00 AM EDT / 2014.10.24 1500 UTC
Wind: from the WSW (250 degrees) at 3 MPH (3 KT):0
Temperature: 51.4 F (10.8 C)
Dew Point: 44.4 F (6.9 C)
Relative Humidity: 76%
ob: CWBZ 241500Z AUTO 25003KT 11/07 RMK AO1 T01080069
cycle: 15
Mount Washington, NH, United States (KMWN) 44-16N 071-18W 1910M
Oct 24, 2014 - 10:54 AM EDT / 2014.10.24 1454 UTC
Wind: from the NNE (020 degrees) at 18 MPH (16 KT):0
Visibility: 1/8 mile(s):0
Sky conditions: obscured
Weather: fog
Temperature: 33 F (1 C)
Windchill: 21 F (-6 C):1
Dew Point: 33 F (1 C)
Relative Humidity: 100%
ob: KMWN 241454Z 02016KT 1/8SM FG VV003 01/01 RMK 
cycle: 15
Vancouver International Air-Port, B. C., Canada (CYVR) 49-11N 123-10W 2M
Oct 24, 2014 - 11:00 AM EDT / 2014.10.24 1500 UTC
Wind: from the E (100 degrees) at 9 MPH (8 KT):0
Visibility: 15 mile(s):0
Sky conditions: overcast
Temperature: 48 F (9 C)
Dew Point: 46 F (8 C)
Relative Humidity: 93%
Pressure (altimeter): 30.06 in. Hg (1017 hPa)
ob: CYVR 241500Z 10008KT 15SM FEW019 SCT024 OVC038 09/08 A3006 RMK SC1SC3SC4 SLP180
cycle: 15



The data is logged at two minute intervals, but there is data recorded every minute.

Use the RELOAD facility on your browser to retrieve the latest data.

Click here for a daily update of the averages/extremes to date for the month

Click here for Real Time Weather



Created by "Weather Display" software version 10.37R Build 51 at this start time/date 18:37 2014-10-01